createdAt,value
2022-10-29T00:00:50.492Z,15.19
2022-10-29T00:01:50.542Z,15.18
2022-10-29T00:02:50.514Z,15.19
2022-10-29T00:03:50.449Z,15.18
2022-10-29T00:04:50.439Z,15.19
2022-10-29T00:05:50.425Z,15.18
2022-10-29T00:07:50.398Z,15.18
2022-10-29T00:08:50.386Z,15.16
2022-10-29T00:09:50.373Z,15.19
2022-10-29T00:10:50.360Z,15.18
2022-10-29T00:11:50.347Z,15.16
2022-10-29T00:12:50.357Z,15.18
2022-10-29T00:13:50.319Z,15.16
2022-10-29T00:14:50.309Z,15.18
2022-10-29T00:15:50.292Z,15.18
2022-10-29T00:16:50.285Z,15.16
2022-10-29T00:17:50.267Z,15.16
2022-10-29T00:18:50.256Z,15.16
2022-10-29T00:19:50.243Z,15.16
2022-10-29T00:20:50.231Z,15.16
2022-10-29T00:21:50.219Z,15.16
2022-10-29T00:22:50.204Z,15.16
2022-10-29T00:23:50.193Z,15.18
2022-10-29T00:24:50.178Z,15.16
2022-10-29T00:25:50.165Z,15.14
2022-10-29T00:26:50.159Z,15.18
2022-10-29T00:27:50.143Z,15.18
2022-10-29T00:28:50.150Z,15.16
2022-10-29T00:29:50.112Z,15.16
2022-10-29T00:30:50.101Z,15.18
2022-10-29T00:31:50.124Z,15.18
2022-10-29T00:32:50.075Z,15.18
2022-10-29T00:33:50.063Z,15.16
2022-10-29T00:34:50.049Z,15.18
2022-10-29T00:35:50.034Z,15.16
2022-10-29T00:36:50.022Z,15.16
2022-10-29T00:37:50.007Z,15.16
2022-10-29T00:38:49.999Z,15.16
2022-10-29T00:39:49.983Z,15.16
2022-10-29T00:40:49.976Z,15.16
2022-10-29T00:41:49.957Z,15.16
2022-10-29T00:42:49.946Z,15.18
2022-10-29T00:43:49.930Z,15.14
2022-10-29T00:44:49.941Z,15.16
2022-10-29T00:45:49.905Z,15.14
2022-10-29T00:46:49.895Z,15.16
2022-10-29T00:47:49.882Z,15.14
2022-10-29T00:48:49.868Z,15.16
2022-10-29T00:49:49.855Z,15.16
2022-10-29T00:50:49.841Z,15.16
2022-10-29T00:51:49.830Z,15.14
2022-10-29T00:52:49.818Z,15.16
2022-10-29T00:53:49.803Z,15.16
2022-10-29T00:54:49.791Z,15.16
2022-10-29T00:55:49.774Z,15.16
2022-10-29T00:56:49.763Z,15.14
2022-10-29T00:57:49.749Z,15.16
2022-10-29T00:58:49.738Z,15.14
2022-10-29T01:00:49.736Z,15.14
2022-10-29T01:01:49.917Z,15.14
2022-10-29T01:02:49.764Z,15.12
2022-10-29T01:03:49.672Z,15.12
2022-10-29T01:04:49.663Z,15.12
2022-10-29T01:05:49.646Z,15.14
2022-10-29T01:06:49.633Z,15.14
2022-10-29T01:07:49.621Z,15.14
2022-10-29T01:08:49.610Z,15.12
2022-10-29T01:09:49.594Z,15.11
2022-10-29T01:10:49.586Z,15.11
2022-10-29T01:11:49.567Z,15.11
2022-10-29T01:12:49.555Z,15.11
2022-10-29T01:13:49.543Z,15.12
2022-10-29T01:14:49.530Z,15.12
2022-10-29T01:15:49.519Z,15.12
2022-10-29T01:16:49.527Z,15.12
2022-10-29T01:17:49.491Z,15.12
2022-10-29T01:18:49.518Z,15.11
2022-10-29T01:19:49.463Z,15.11
2022-10-29T01:20:49.454Z,15.10
2022-10-29T01:21:49.439Z,15.10
2022-10-29T01:22:49.427Z,15.10
2022-10-29T01:23:49.415Z,15.10
2022-10-29T01:24:49.402Z,15.10
2022-10-29T01:25:49.387Z,15.10
2022-10-29T01:26:49.380Z,15.10
2022-10-29T01:27:49.361Z,15.10
2022-10-29T01:28:49.350Z,15.08
2022-10-29T01:29:49.342Z,15.08
2022-10-29T01:30:49.324Z,15.07
2022-10-29T01:31:49.309Z,15.07
2022-10-29T01:32:49.321Z,15.08
2022-10-29T01:33:49.281Z,15.07
2022-10-29T01:34:49.273Z,15.07
2022-10-29T01:35:49.260Z,15.08
2022-10-29T01:36:49.245Z,15.08
2022-10-29T01:37:49.234Z,15.08
2022-10-29T01:38:49.221Z,15.08
2022-10-29T01:39:49.211Z,15.10
2022-10-29T01:40:49.194Z,15.08
2022-10-29T01:41:49.181Z,15.10
2022-10-29T01:42:49.166Z,15.08
2022-10-29T01:43:49.151Z,15.08
2022-10-29T01:44:49.142Z,15.08
2022-10-29T01:45:49.127Z,15.10
2022-10-29T01:46:49.116Z,15.08
2022-10-29T01:47:49.102Z,15.08
2022-10-29T01:48:49.118Z,15.08
2022-10-29T01:49:49.076Z,15.10
2022-10-29T01:50:49.064Z,15.10
2022-10-29T01:51:49.049Z,15.08
2022-10-29T01:52:49.038Z,15.10
2022-10-29T01:53:49.025Z,15.08
2022-10-29T01:54:49.015Z,15.08
2022-10-29T01:55:49.000Z,15.08
2022-10-29T01:56:48.985Z,15.07
2022-10-29T01:57:48.970Z,15.10
2022-10-29T01:58:48.959Z,15.07
2022-10-29T01:59:55.618Z,15.08
2022-10-29T02:00:50.197Z,15.07
2022-10-29T02:01:48.950Z,15.07
2022-10-29T02:02:48.907Z,15.05
2022-10-29T02:03:48.894Z,15.07
2022-10-29T02:04:48.905Z,15.07
2022-10-29T02:05:48.865Z,15.07
2022-10-29T02:06:48.860Z,15.07
2022-10-29T02:07:48.842Z,15.05
2022-10-29T02:08:48.831Z,15.07
2022-10-29T02:09:48.817Z,15.05
2022-10-29T02:10:48.803Z,15.07
2022-10-29T02:11:48.792Z,15.05
2022-10-29T02:12:48.780Z,15.07
2022-10-29T02:13:48.762Z,15.07
2022-10-29T02:14:48.752Z,15.07
2022-10-29T02:15:48.739Z,15.05
2022-10-29T02:16:48.726Z,15.07
2022-10-29T02:17:48.713Z,15.05
2022-10-29T02:18:48.700Z,15.07
2022-10-29T02:19:48.689Z,15.07
2022-10-29T02:20:48.705Z,15.05
2022-10-29T02:21:48.660Z,15.05
2022-10-29T02:22:48.646Z,15.05
2022-10-29T02:23:48.634Z,15.04
2022-10-29T02:24:48.621Z,15.04
2022-10-29T02:25:48.700Z,15.04
2022-10-29T02:26:48.596Z,15.04
2022-10-29T02:27:48.580Z,15.05
2022-10-29T02:28:48.572Z,15.04
2022-10-29T02:29:48.554Z,15.04
2022-10-29T02:30:48.545Z,15.05
2022-10-29T02:31:48.529Z,15.04
2022-10-29T02:32:48.518Z,15.04
2022-10-29T02:33:48.503Z,15.05
2022-10-29T02:34:48.492Z,15.05
2022-10-29T02:35:48.480Z,15.05
2022-10-29T02:36:48.492Z,15.02
2022-10-29T02:37:48.451Z,15.04
2022-10-29T02:38:48.441Z,15.04
2022-10-29T02:39:48.427Z,15.04
2022-10-29T02:40:48.414Z,15.04
2022-10-29T02:41:48.401Z,15.04
2022-10-29T02:42:48.387Z,15.04
2022-10-29T02:43:48.375Z,15.02
2022-10-29T02:44:48.360Z,15.02
2022-10-29T02:45:48.347Z,15.04
2022-10-29T02:46:48.335Z,15.04
2022-10-29T02:47:48.322Z,15.02
2022-10-29T02:48:48.311Z,15.01
2022-10-29T02:49:54.301Z,15.01
2022-10-29T02:50:48.287Z,15.02
2022-10-29T02:51:48.269Z,15.02
2022-10-29T02:52:48.285Z,15.01
2022-10-29T02:53:48.243Z,15.02
2022-10-29T02:54:48.234Z,15.02
2022-10-29T02:55:48.221Z,15.02
2022-10-29T02:56:48.204Z,15.01
2022-10-29T02:57:48.191Z,15.02
2022-10-29T02:58:48.184Z,15.02
2022-10-29T02:59:48.165Z,15.02
2022-10-29T03:00:48.153Z,15.01
2022-10-29T03:01:48.332Z,15.01
2022-10-29T03:02:48.183Z,15.01
2022-10-29T03:03:48.117Z,15.01
2022-10-29T03:04:48.102Z,15.00
2022-10-29T03:05:49.191Z,15.01
2022-10-29T03:06:48.075Z,15.00
2022-10-29T03:07:48.061Z,15.00
2022-10-29T03:08:48.075Z,15.00
2022-10-29T03:09:48.037Z,15.01
2022-10-29T03:10:48.030Z,15.00
2022-10-29T03:11:48.011Z,15.00
2022-10-29T03:12:48.001Z,15.00
2022-10-29T03:13:47.983Z,15.00
2022-10-29T03:14:47.974Z,15.01
2022-10-29T03:15:47.957Z,15.00
2022-10-29T03:16:47.947Z,15.00
2022-10-29T03:17:47.952Z,15.00
2022-10-29T03:18:47.920Z,15.00
2022-10-29T03:19:47.905Z,15.00
2022-10-29T03:20:47.894Z,15.00
2022-10-29T03:21:47.879Z,15.00
2022-10-29T03:22:47.868Z,15.00
2022-10-29T03:23:47.854Z,15.00
2022-10-29T03:24:47.867Z,14.98
2022-10-29T03:25:51.406Z,14.98
2022-10-29T03:26:55.821Z,15.00
2022-10-29T03:27:47.804Z,15.00
2022-10-29T03:28:47.791Z,14.98
2022-10-29T03:29:47.776Z,14.98
2022-10-29T03:30:47.767Z,15.00
2022-10-29T03:31:47.751Z,14.98
2022-10-29T03:32:47.741Z,15.00
2022-10-29T03:33:47.732Z,15.00
2022-10-29T03:34:47.716Z,14.98
2022-10-29T03:35:47.805Z,15.00
2022-10-29T03:36:47.688Z,15.00
2022-10-29T03:37:47.672Z,15.00
2022-10-29T03:38:47.670Z,14.98
2022-10-29T03:39:47.646Z,14.98
2022-10-29T03:40:47.661Z,15.00
2022-10-29T03:41:47.621Z,14.98
2022-10-29T03:42:47.609Z,14.98
2022-10-29T03:43:47.637Z,15.00
2022-10-29T03:44:47.583Z,14.98
2022-10-29T03:45:47.571Z,15.00
2022-10-29T03:46:47.556Z,14.98
2022-10-29T03:47:47.547Z,14.97
2022-10-29T03:48:47.532Z,14.98
2022-10-29T03:49:47.516Z,14.98
2022-10-29T03:50:47.506Z,14.98
2022-10-29T03:51:47.492Z,14.98
2022-10-29T03:52:47.479Z,14.98
2022-10-29T03:53:47.464Z,14.97
2022-10-29T03:54:47.453Z,14.98
2022-10-29T03:55:47.441Z,14.98
2022-10-29T03:56:47.451Z,14.98
2022-10-29T03:57:47.415Z,14.98
2022-10-29T03:58:47.401Z,14.98
2022-10-29T03:59:49.968Z,14.97
2022-10-29T04:00:47.375Z,14.97
2022-10-29T04:01:47.493Z,14.94
2022-10-29T04:02:47.437Z,14.98
2022-10-29T04:03:47.341Z,14.98
2022-10-29T04:04:47.325Z,14.98
2022-10-29T04:05:47.319Z,14.98
2022-10-29T04:06:47.297Z,14.98
2022-10-29T04:07:47.284Z,14.97
2022-10-29T04:08:47.276Z,14.97
2022-10-29T04:09:47.258Z,14.97
2022-10-29T04:10:47.244Z,14.94
2022-10-29T04:11:47.233Z,14.94
2022-10-29T04:12:47.247Z,14.97
2022-10-29T04:13:47.207Z,14.97
2022-10-29T04:14:47.225Z,14.94
2022-10-29T04:15:47.182Z,14.97
2022-10-29T04:16:47.172Z,14.94
2022-10-29T04:17:47.156Z,14.94
2022-10-29T04:18:47.140Z,14.93
2022-10-29T04:19:47.131Z,14.94
2022-10-29T04:22:26.960Z,14.94
2022-10-29T04:26:48.035Z,14.94
2022-10-29T04:27:01.770Z,14.93
2022-10-29T04:28:41.946Z,14.97
2022-10-29T04:28:48.074Z,14.93
2022-10-29T04:29:46.998Z,14.93
2022-10-29T04:30:46.986Z,14.93
2022-10-29T04:31:46.985Z,14.94
2022-10-29T04:32:46.959Z,14.93
2022-10-29T04:33:46.956Z,14.94
2022-10-29T04:34:46.936Z,14.94
2022-10-29T04:35:46.921Z,14.93
2022-10-29T04:36:46.929Z,14.94
2022-10-29T04:37:46.916Z,14.93
2022-10-29T04:38:46.881Z,14.93
2022-10-29T04:39:46.870Z,14.93
2022-10-29T04:40:46.856Z,14.93
2022-10-29T04:41:46.849Z,14.93
2022-10-29T04:42:46.834Z,14.93
2022-10-29T04:43:46.817Z,14.93
2022-10-29T04:44:46.830Z,14.92
2022-10-29T04:45:46.792Z,14.92
2022-10-29T04:46:46.774Z,14.93
2022-10-29T04:47:46.764Z,14.92
2022-10-29T04:48:46.866Z,14.93
2022-10-29T04:49:46.739Z,14.93
2022-10-29T04:50:46.726Z,14.92
2022-10-29T04:51:46.712Z,14.93
2022-10-29T04:52:46.699Z,14.92
2022-10-29T04:53:46.688Z,14.93
2022-10-29T04:54:46.673Z,14.92
2022-10-29T04:55:46.663Z,14.92
2022-10-29T04:56:46.646Z,14.93
2022-10-29T04:57:46.637Z,14.92
2022-10-29T04:58:46.629Z,14.92
2022-10-29T04:59:46.611Z,14.92
2022-10-29T05:00:46.733Z,14.92
2022-10-29T05:01:46.593Z,14.90
2022-10-29T05:02:46.571Z,14.90
2022-10-29T05:03:46.559Z,14.92
2022-10-29T05:04:46.544Z,14.90
2022-10-29T05:05:46.534Z,14.90
2022-10-29T05:06:46.520Z,14.89
2022-10-29T05:07:46.506Z,14.90
2022-10-29T05:08:46.491Z,14.92
2022-10-29T05:09:46.479Z,14.92
2022-10-29T05:10:46.466Z,14.92
2022-10-29T05:11:46.453Z,14.92
2022-10-29T05:12:46.444Z,14.90
2022-10-29T05:13:46.426Z,14.92
2022-10-29T05:14:46.413Z,14.90
2022-10-29T05:15:50.466Z,14.90
2022-10-29T05:16:47.450Z,14.90
2022-10-29T05:17:46.377Z,14.90
2022-10-29T05:18:46.360Z,14.90
2022-10-29T05:19:46.347Z,14.89
2022-10-29T05:20:46.343Z,14.90
2022-10-29T05:21:46.321Z,14.89
2022-10-29T05:22:46.308Z,14.90
2022-10-29T05:23:46.296Z,14.89
2022-10-29T05:24:46.284Z,14.89
2022-10-29T05:25:46.270Z,14.89
2022-10-29T05:26:46.254Z,14.89
2022-10-29T05:27:46.244Z,14.89
2022-10-29T05:28:46.230Z,14.87
2022-10-29T05:29:46.221Z,14.87
2022-10-29T05:30:46.205Z,14.87
2022-10-29T05:31:46.192Z,14.87
2022-10-29T05:32:46.204Z,14.87
2022-10-29T05:33:46.164Z,14.87
2022-10-29T05:34:46.151Z,14.89
2022-10-29T05:35:46.149Z,14.89
2022-10-29T05:36:46.125Z,14.87
2022-10-29T05:37:46.113Z,14.89
2022-10-29T05:38:46.098Z,14.87
2022-10-29T05:39:46.087Z,14.87
2022-10-29T05:40:46.072Z,14.87
2022-10-29T05:41:46.060Z,14.86
2022-10-29T05:42:47.411Z,14.86
2022-10-29T05:43:46.034Z,14.86
2022-10-29T05:44:46.021Z,14.87
2022-10-29T05:45:46.009Z,14.87
2022-10-29T05:46:45.993Z,14.86
2022-10-29T05:47:45.986Z,14.86
2022-10-29T05:48:45.990Z,14.86
2022-10-29T05:49:45.955Z,14.89
2022-10-29T05:50:45.941Z,14.87
2022-10-29T05:51:45.930Z,14.86
2022-10-29T05:52:45.914Z,14.86
2022-10-29T05:53:45.905Z,14.87
2022-10-29T05:54:45.892Z,14.87
2022-10-29T05:55:45.888Z,14.87
2022-10-29T05:56:45.865Z,14.86
2022-10-29T05:57:45.854Z,14.86
2022-10-29T05:58:45.837Z,14.87
2022-10-29T05:59:45.827Z,14.86
2022-10-29T06:00:45.812Z,14.86
2022-10-29T06:01:46.048Z,14.86
2022-10-29T06:02:45.905Z,14.86
2022-10-29T06:03:45.796Z,14.87
2022-10-29T06:04:45.790Z,14.86
2022-10-29T06:05:45.751Z,14.86
2022-10-29T06:06:45.810Z,14.86
2022-10-29T06:07:45.721Z,14.86
2022-10-29T06:08:45.707Z,14.86
2022-10-29T06:09:45.696Z,14.87
2022-10-29T06:10:45.681Z,14.85
2022-10-29T06:11:45.672Z,14.86
2022-10-29T06:12:45.655Z,14.86
2022-10-29T06:13:45.643Z,14.87
2022-10-29T06:14:45.629Z,14.86
2022-10-29T06:15:45.617Z,14.86
2022-10-29T06:16:45.600Z,14.86
2022-10-29T06:17:45.593Z,14.85
2022-10-29T06:18:45.576Z,14.85
2022-10-29T06:19:45.571Z,14.86
2022-10-29T06:20:45.575Z,14.86
2022-10-29T06:21:45.538Z,14.85
2022-10-29T06:22:45.525Z,14.86
2022-10-29T06:23:45.513Z,14.87
2022-10-29T06:24:45.504Z,14.86
2022-10-29T06:25:45.487Z,14.85
2022-10-29T06:26:45.473Z,14.87
2022-10-29T06:27:45.462Z,14.85
2022-10-29T06:28:45.449Z,14.85
2022-10-29T06:29:45.436Z,14.85
2022-10-29T06:30:45.422Z,14.85
2022-10-29T06:31:45.409Z,14.85
2022-10-29T06:32:45.398Z,14.85
2022-10-29T06:33:45.383Z,14.85
2022-10-29T06:34:45.370Z,14.85
2022-10-29T06:35:45.357Z,14.86
2022-10-29T06:36:45.369Z,14.86
2022-10-29T06:37:45.330Z,14.85
2022-10-29T06:38:45.317Z,14.86
2022-10-29T06:39:45.306Z,14.85
2022-10-29T06:40:45.291Z,14.86
2022-10-29T06:41:45.278Z,14.85
2022-10-29T06:42:45.265Z,14.85
2022-10-29T06:43:45.253Z,14.85
2022-10-29T06:44:45.239Z,14.85
2022-10-29T06:45:45.228Z,14.86
2022-10-29T06:46:45.215Z,14.86
2022-10-29T06:47:45.201Z,14.85
2022-10-29T06:48:45.187Z,14.85
2022-10-29T06:49:45.176Z,14.87
2022-10-29T06:50:45.162Z,14.85
2022-10-29T06:51:45.152Z,14.86
2022-10-29T06:52:45.161Z,14.86
2022-10-29T06:53:45.128Z,14.86
2022-10-29T06:54:45.111Z,14.86
2022-10-29T06:55:45.099Z,14.86
2022-10-29T06:56:45.083Z,14.87
2022-10-29T06:57:45.075Z,14.86
2022-10-29T06:58:45.059Z,14.86
2022-10-29T06:59:45.047Z,14.86
2022-10-29T07:00:45.268Z,14.86
2022-10-29T07:01:45.057Z,14.86
2022-10-29T07:02:45.006Z,14.87
2022-10-29T07:03:44.995Z,14.86
2022-10-29T07:04:44.979Z,14.85
2022-10-29T07:05:44.968Z,14.85
2022-10-29T07:06:50.958Z,14.87
2022-10-29T07:07:44.941Z,14.86
2022-10-29T07:08:44.952Z,14.86
2022-10-29T07:09:44.920Z,14.85
2022-10-29T07:10:44.903Z,14.86
2022-10-29T07:11:44.890Z,14.86
2022-10-29T07:12:50.886Z,14.87
2022-10-29T07:13:44.865Z,14.86
2022-10-29T07:14:44.851Z,14.86
2022-10-29T07:15:44.838Z,14.87
2022-10-29T07:16:44.827Z,14.86
2022-10-29T07:17:44.812Z,14.87
2022-10-29T07:18:44.801Z,14.87
2022-10-29T07:19:44.787Z,14.87
2022-10-29T07:20:44.772Z,14.87
2022-10-29T07:21:44.766Z,14.87
2022-10-29T07:22:44.745Z,14.87
2022-10-29T07:23:44.730Z,14.87
2022-10-29T07:24:44.745Z,14.87
2022-10-29T07:25:44.708Z,14.87
2022-10-29T07:26:44.694Z,14.87
2022-10-29T07:27:44.775Z,14.87
2022-10-29T07:28:44.676Z,14.87
2022-10-29T07:29:44.657Z,14.89
2022-10-29T07:30:44.641Z,14.89
2022-10-29T07:31:44.634Z,14.89
2022-10-29T07:32:44.616Z,14.89
2022-10-29T07:33:44.606Z,14.89
2022-10-29T07:34:44.590Z,14.89
2022-10-29T07:35:44.580Z,14.89
2022-10-29T07:36:44.566Z,14.87
2022-10-29T07:37:44.551Z,14.87
2022-10-29T07:38:44.539Z,14.87
2022-10-29T07:39:44.527Z,14.89
2022-10-29T07:40:44.538Z,14.87
2022-10-29T07:41:44.502Z,14.89
2022-10-29T07:42:44.486Z,14.89
2022-10-29T07:43:44.475Z,14.92
2022-10-29T07:44:44.459Z,14.89
2022-10-29T07:45:44.449Z,14.90
2022-10-29T07:46:44.435Z,14.90
2022-10-29T07:47:44.422Z,14.89
2022-10-29T07:48:44.476Z,14.90
2022-10-29T07:49:44.397Z,14.90
2022-10-29T07:50:44.382Z,14.89
2022-10-29T07:51:44.371Z,14.90
2022-10-29T07:52:44.358Z,14.92
2022-10-29T07:53:44.345Z,14.90
2022-10-29T07:54:44.336Z,14.90
2022-10-29T07:55:44.319Z,14.92
2022-10-29T07:56:46.868Z,14.90
2022-10-29T07:57:44.294Z,14.92
2022-10-29T07:58:44.280Z,14.90
2022-10-29T07:59:44.269Z,14.92
2022-10-29T08:00:44.319Z,14.90
2022-10-29T08:01:44.364Z,14.90
2022-10-29T08:02:44.228Z,14.92
2022-10-29T08:03:44.218Z,14.90
2022-10-29T08:04:44.202Z,14.90
2022-10-29T08:05:44.192Z,14.93
2022-10-29T08:06:44.178Z,14.90
2022-10-29T08:07:44.165Z,14.92
2022-10-29T08:08:44.151Z,14.90
2022-10-29T08:09:44.139Z,14.92
2022-10-29T08:10:44.127Z,14.92
2022-10-29T08:11:44.176Z,14.92
2022-10-29T08:12:44.130Z,14.93
2022-10-29T08:13:44.087Z,14.93
2022-10-29T08:14:44.072Z,14.93
2022-10-29T08:15:44.058Z,14.93
2022-10-29T08:16:44.048Z,14.94
2022-10-29T08:17:44.034Z,14.94
2022-10-29T08:18:44.024Z,14.93
2022-10-29T08:19:44.006Z,14.94
2022-10-29T08:20:43.995Z,14.94
2022-10-29T08:21:43.981Z,14.93
2022-10-29T08:22:43.971Z,14.94
2022-10-29T08:23:43.953Z,14.97
2022-10-29T08:24:43.946Z,14.97
2022-10-29T08:25:43.935Z,14.94
2022-10-29T08:26:43.920Z,14.94
2022-10-29T08:27:44.006Z,14.94
2022-10-29T08:28:43.916Z,14.97
2022-10-29T08:29:43.876Z,14.98
2022-10-29T08:30:43.889Z,14.98
2022-10-29T08:31:43.854Z,14.98
2022-10-29T08:32:43.841Z,14.97
2022-10-29T08:33:43.829Z,14.98
2022-10-29T08:34:43.813Z,14.98
2022-10-29T08:35:43.798Z,14.98
2022-10-29T08:36:43.790Z,15.00
2022-10-29T08:37:43.771Z,15.00
2022-10-29T08:38:43.759Z,14.98
2022-10-29T08:39:43.748Z,15.00
2022-10-29T08:40:43.737Z,15.00
2022-10-29T08:41:43.723Z,15.00
2022-10-29T08:42:43.713Z,14.98
2022-10-29T08:43:47.396Z,15.00
2022-10-29T08:44:43.710Z,15.00
2022-10-29T08:45:43.671Z,15.01
2022-10-29T08:46:43.659Z,14.98
2022-10-29T08:47:43.642Z,15.00
2022-10-29T08:48:43.632Z,15.01
2022-10-29T08:49:43.619Z,14.98
2022-10-29T08:50:43.606Z,15.00
2022-10-29T08:51:43.592Z,15.01
2022-10-29T08:52:53.403Z,15.00
2022-10-29T08:53:45.479Z,15.00
2022-10-29T08:54:43.554Z,14.98
2022-10-29T08:55:43.540Z,14.98
2022-10-29T08:56:43.527Z,15.00
2022-10-29T08:57:43.516Z,15.01
2022-10-29T08:58:43.507Z,15.01
2022-10-29T08:59:43.489Z,15.00
2022-10-29T09:00:43.586Z,15.01
2022-10-29T09:01:43.626Z,15.01
2022-10-29T09:02:43.450Z,15.01
2022-10-29T09:03:43.435Z,15.01
2022-10-29T09:04:43.424Z,15.02
2022-10-29T09:05:43.410Z,15.02
2022-10-29T09:06:43.399Z,15.02
2022-10-29T09:07:43.384Z,15.02
2022-10-29T09:08:43.372Z,15.02
2022-10-29T09:09:43.358Z,15.02
2022-10-29T09:10:43.364Z,15.02
2022-10-29T09:11:43.335Z,15.04
2022-10-29T09:12:43.320Z,15.05
2022-10-29T09:13:43.310Z,15.07
2022-10-29T09:14:43.295Z,15.05
2022-10-29T09:15:43.281Z,15.07
2022-10-29T09:16:43.687Z,15.08
2022-10-29T09:17:43.254Z,15.07
2022-10-29T09:18:43.242Z,15.08
2022-10-29T09:19:43.226Z,15.07
2022-10-29T09:20:43.217Z,15.10
2022-10-29T09:21:43.206Z,15.10
2022-10-29T09:22:43.191Z,15.08
2022-10-29T09:23:43.175Z,15.08
2022-10-29T09:24:43.174Z,15.10
2022-10-29T09:25:43.151Z,15.11
2022-10-29T09:26:43.138Z,15.10
2022-10-29T09:27:43.125Z,15.12
2022-10-29T09:28:43.112Z,15.12
2022-10-29T09:29:43.097Z,15.12
2022-10-29T09:30:43.084Z,15.14
2022-10-29T09:31:43.074Z,15.14
2022-10-29T09:32:43.135Z,15.14
2022-10-29T09:33:43.047Z,15.14
2022-10-29T09:34:43.039Z,15.16
2022-10-29T09:35:43.021Z,15.18
2022-10-29T09:36:43.011Z,15.19
2022-10-29T09:37:42.995Z,15.18
2022-10-29T09:38:42.984Z,15.18
2022-10-29T09:39:42.967Z,15.20
2022-10-29T09:40:42.963Z,15.19
2022-10-29T09:41:42.944Z,15.19
2022-10-29T09:42:42.931Z,15.19
2022-10-29T09:43:42.917Z,15.20
2022-10-29T09:44:42.904Z,15.20
2022-10-29T09:45:42.891Z,15.20
2022-10-29T09:46:42.881Z,15.20
2022-10-29T09:47:42.865Z,15.20
2022-10-29T09:48:42.877Z,15.20
2022-10-29T09:49:42.846Z,15.22
2022-10-29T09:50:42.837Z,15.22
2022-10-29T09:51:42.814Z,15.22
2022-10-29T09:52:42.802Z,15.22
2022-10-29T09:53:42.788Z,15.20
2022-10-29T09:54:42.779Z,15.22
2022-10-29T09:55:42.762Z,15.22
2022-10-29T09:56:42.750Z,15.20
2022-10-29T09:57:42.736Z,15.22
2022-10-29T09:58:42.730Z,15.22
2022-10-29T09:59:42.707Z,15.25
2022-10-29T10:00:42.699Z,15.25
2022-10-29T10:01:42.814Z,15.25
2022-10-29T10:02:42.791Z,15.25
2022-10-29T10:03:42.657Z,15.23
2022-10-29T10:04:42.678Z,15.23
2022-10-29T10:05:42.632Z,15.25
2022-10-29T10:06:42.622Z,15.25
2022-10-29T10:07:42.609Z,15.25
2022-10-29T10:08:42.594Z,15.23
2022-10-29T10:09:42.581Z,15.23
2022-10-29T10:10:42.569Z,15.25
2022-10-29T10:11:42.556Z,15.25
2022-10-29T10:12:42.542Z,15.25
2022-10-29T10:13:42.531Z,15.25
2022-10-29T10:14:42.518Z,15.25
2022-10-29T10:15:42.503Z,15.27
2022-10-29T10:16:42.492Z,15.25
2022-10-29T10:17:42.477Z,15.26
2022-10-29T10:19:42.450Z,15.26
2022-10-29T10:20:42.462Z,15.26
2022-10-29T10:21:42.424Z,15.26
2022-10-29T10:22:42.414Z,15.25
2022-10-29T10:23:42.400Z,15.26
2022-10-29T10:24:42.390Z,15.27
2022-10-29T10:25:42.487Z,15.27
2022-10-29T10:26:42.359Z,15.27
2022-10-29T10:27:42.349Z,15.29
2022-10-29T10:28:42.332Z,15.29
2022-10-29T10:29:42.321Z,15.27
2022-10-29T10:30:42.309Z,15.29
2022-10-29T10:31:42.294Z,15.29
2022-10-29T10:32:42.288Z,15.29
2022-10-29T10:33:42.278Z,15.29
2022-10-29T10:34:42.257Z,15.29
2022-10-29T10:35:42.343Z,15.30
2022-10-29T10:36:42.256Z,15.30
2022-10-29T10:37:42.216Z,15.30
2022-10-29T10:38:42.206Z,15.32
2022-10-29T10:39:42.204Z,15.32
2022-10-29T10:40:42.179Z,15.34
2022-10-29T10:41:42.162Z,15.34
2022-10-29T10:42:42.155Z,15.32
2022-10-29T10:43:42.149Z,15.34
2022-10-29T10:44:42.130Z,15.32
2022-10-29T10:45:42.113Z,15.34
2022-10-29T10:46:42.099Z,15.34
2022-10-29T10:47:42.086Z,15.32
2022-10-29T10:48:42.084Z,15.32
2022-10-29T10:49:42.059Z,15.30
2022-10-29T10:50:42.048Z,15.32
2022-10-29T10:51:42.033Z,15.34
2022-10-29T10:52:42.051Z,15.34
2022-10-29T10:53:42.008Z,15.37
2022-10-29T10:54:42.341Z,15.34
2022-10-29T10:55:41.984Z,15.35
2022-10-29T10:56:41.971Z,15.34
2022-10-29T10:57:41.955Z,15.32
2022-10-29T10:58:41.946Z,15.34
2022-10-29T10:59:41.933Z,15.34
2022-10-29T11:00:41.977Z,15.34
2022-10-29T11:01:42.052Z,15.35
2022-10-29T11:02:41.893Z,15.34
2022-10-29T11:03:41.879Z,15.34
2022-10-29T11:04:41.869Z,15.34
2022-10-29T11:05:41.854Z,15.34
2022-10-29T11:06:41.840Z,15.34
2022-10-29T11:07:41.826Z,15.34
2022-10-29T11:08:41.840Z,15.34
2022-10-29T11:09:41.800Z,15.35
2022-10-29T11:10:41.791Z,15.37
2022-10-29T11:11:41.785Z,15.35
2022-10-29T11:12:41.762Z,15.35
2022-10-29T11:13:41.760Z,15.37
2022-10-29T11:14:41.740Z,15.37
2022-10-29T11:15:41.722Z,15.35
2022-10-29T11:16:41.709Z,15.35
2022-10-29T11:17:41.696Z,15.37
2022-10-29T11:18:41.692Z,15.35
2022-10-29T11:19:41.670Z,15.35
2022-10-29T11:20:41.658Z,15.37
2022-10-29T11:21:41.642Z,15.35
2022-10-29T11:22:41.632Z,15.37
2022-10-29T11:23:41.619Z,15.37
2022-10-29T11:24:41.627Z,15.35
2022-10-29T11:25:41.592Z,15.35
2022-10-29T11:26:41.580Z,15.35
2022-10-29T11:27:41.565Z,15.35
2022-10-29T11:28:41.554Z,15.35
2022-10-29T11:29:42.957Z,15.35
2022-10-29T11:30:41.526Z,15.35
2022-10-29T11:31:41.517Z,15.37
2022-10-29T11:32:41.500Z,15.37
2022-10-29T11:33:41.487Z,15.37
2022-10-29T11:34:41.478Z,15.37
2022-10-29T11:35:41.460Z,15.37
2022-10-29T11:36:41.452Z,15.37
2022-10-29T11:37:41.435Z,15.37
2022-10-29T11:38:41.423Z,15.37
2022-10-29T11:39:41.410Z,15.38
2022-10-29T11:40:41.422Z,15.38
2022-10-29T11:41:41.383Z,15.37
2022-10-29T11:42:41.370Z,15.37
2022-10-29T11:43:41.357Z,15.38
2022-10-29T11:44:41.345Z,15.38
2022-10-29T11:45:41.329Z,15.38
2022-10-29T11:46:41.319Z,15.38
2022-10-29T11:47:41.304Z,15.38
2022-10-29T11:48:41.291Z,15.40
2022-10-29T11:49:41.279Z,15.40
2022-10-29T11:50:41.267Z,15.41
2022-10-29T11:51:41.251Z,15.41
2022-10-29T11:52:41.242Z,15.41
2022-10-29T11:53:41.226Z,15.42
2022-10-29T11:54:41.215Z,15.42
2022-10-29T11:55:41.200Z,15.41
2022-10-29T11:56:41.212Z,15.42
2022-10-29T11:57:41.180Z,15.42
2022-10-29T11:58:41.170Z,15.44
2022-10-29T11:59:41.149Z,15.44
2022-10-29T12:00:41.135Z,15.44
2022-10-29T12:01:41.157Z,15.45
2022-10-29T12:02:41.110Z,15.45
2022-10-29T12:03:41.178Z,15.44
2022-10-29T12:04:41.087Z,15.45
2022-10-29T12:05:41.133Z,15.45
2022-10-29T12:06:41.062Z,15.45
2022-10-29T12:07:41.045Z,15.44
2022-10-29T12:08:41.031Z,15.44
2022-10-29T12:09:41.017Z,15.44
2022-10-29T12:10:41.006Z,15.44
2022-10-29T12:11:43.107Z,15.44
2022-10-29T12:12:41.004Z,15.45
2022-10-29T12:13:40.965Z,15.45
2022-10-29T12:14:40.953Z,15.45
2022-10-29T12:15:40.937Z,15.45
2022-10-29T12:16:40.926Z,15.44
2022-10-29T12:17:41.042Z,15.44
2022-10-29T12:18:40.914Z,15.44
2022-10-29T12:19:40.886Z,15.44
2022-10-29T12:20:40.914Z,15.42
2022-10-29T12:21:40.862Z,15.44
2022-10-29T12:22:40.898Z,15.42
2022-10-29T12:23:40.837Z,15.42
2022-10-29T12:24:40.823Z,15.42
2022-10-29T12:25:40.807Z,15.42
2022-10-29T12:26:40.796Z,15.42
2022-10-29T12:27:40.785Z,15.44
2022-10-29T12:28:40.794Z,15.42
2022-10-29T12:29:40.758Z,15.42
2022-10-29T12:30:40.742Z,15.42
2022-10-29T12:31:40.733Z,15.44
2022-10-29T12:32:40.717Z,15.44
2022-10-29T12:33:40.708Z,15.45
2022-10-29T12:34:40.693Z,15.44
2022-10-29T12:35:40.681Z,15.45
2022-10-29T12:36:40.665Z,15.45
2022-10-29T12:37:40.656Z,15.48
2022-10-29T12:38:40.641Z,15.45
2022-10-29T12:39:40.626Z,15.45
2022-10-29T12:40:40.615Z,15.48
2022-10-29T12:41:40.603Z,15.45
2022-10-29T12:42:40.588Z,15.45
2022-10-29T12:43:40.576Z,15.44
2022-10-29T12:44:44.971Z,15.44
2022-10-29T12:46:06.406Z,15.44
2022-10-29T12:46:40.532Z,15.42
2022-10-29T12:47:40.526Z,15.42
2022-10-29T12:48:40.509Z,15.42
2022-10-29T12:49:40.499Z,15.45
2022-10-29T12:50:40.484Z,15.44
2022-10-29T12:51:40.472Z,15.42
2022-10-29T12:52:40.458Z,15.44
2022-10-29T12:53:40.446Z,15.45
2022-10-29T12:54:40.433Z,15.45
2022-10-29T12:55:40.419Z,15.45
2022-10-29T12:56:40.405Z,15.44
2022-10-29T12:57:40.394Z,15.45
2022-10-29T12:58:40.380Z,15.45
2022-10-29T12:59:40.367Z,15.44